sensor_id;sensor_type;location;lat;lon;timestamp;P1;durP1;ratioP1;P2;durP2;ratioP2
83121;SDS011;73002;47.238;9.006;2023-10-19T08:40:20;9.18;;;6.32;;
83121;SDS011;73002;47.238;9.006;2023-10-19T08:42:48;6.60;;;5.72;;
83121;SDS011;73002;47.238;9.006;2023-10-19T08:45:14;6.78;;;5.85;;
83121;SDS011;73002;47.238;9.006;2023-10-19T09:13:35;6.68;;;5.70;;
83121;SDS011;73002;47.238;9.006;2023-10-19T09:16:09;6.82;;;5.90;;
83121;SDS011;73002;47.238;9.006;2023-10-19T09:18:37;7.28;;;5.18;;
83121;SDS011;73002;47.238;9.006;2023-10-19T09:21:03;7.15;;;4.65;;
83121;SDS011;73002;47.238;9.006;2023-10-19T09:23:32;4.85;;;4.35;;
83121;SDS011;73002;47.238;9.006;2023-10-19T09:26:00;6.32;;;5.63;;
83121;SDS011;73002;47.238;9.006;2023-10-19T09:28:30;7.40;;;5.80;;
83121;SDS011;73002;47.238;9.006;2023-10-19T09:30:58;6.60;;;4.78;;
83121;SDS011;73002;47.238;9.006;2023-10-19T09:33:25;7.57;;;5.30;;
83121;SDS011;73002;47.238;9.006;2023-10-19T09:35:52;6.15;;;5.32;;
83121;SDS011;73002;47.238;9.006;2023-10-19T09:38:18;7.53;;;6.68;;
83121;SDS011;73002;47.238;9.006;2023-10-19T09:40:53;9.15;;;8.25;;
83121;SDS011;73002;47.238;9.006;2023-10-19T09:45:57;12.07;;;10.70;;
83121;SDS011;73002;47.238;9.006;2023-10-19T09:48:32;12.57;;;11.15;;
83121;SDS011;73002;47.238;9.006;2023-10-19T09:51:00;12.88;;;10.43;;
83121;SDS011;73002;47.238;9.006;2023-10-19T09:53:28;14.65;;;10.52;;
83121;SDS011;73002;47.238;9.006;2023-10-19T09:55:59;12.43;;;10.10;;
83121;SDS011;73002;47.238;9.006;2023-10-19T10:21:23;11.60;;;9.52;;
83121;SDS011;73002;47.238;9.006;2023-10-19T10:23:50;9.73;;;8.55;;
83121;SDS011;73002;47.238;9.006;2023-10-19T10:26:18;9.73;;;8.63;;
83121;SDS011;73002;47.238;9.006;2023-10-19T10:37:02;10.70;;;8.25;;
83121;SDS011;73002;47.238;9.006;2023-10-19T10:39:36;9.10;;;8.10;;
83121;SDS011;73002;47.238;9.006;2023-10-19T10:42:03;9.48;;;8.40;;
83121;SDS011;73002;47.238;9.006;2023-10-19T10:44:46;9.38;;;7.80;;
83121;SDS011;73002;47.238;9.006;2023-10-19T10:47:21;11.88;;;7.95;;
83121;SDS011;73002;47.238;9.006;2023-10-19T10:49:53;9.27;;;7.70;;
83121;SDS011;73002;47.238;9.006;2023-10-19T10:52:35;9.07;;;7.68;;
83121;SDS011;73002;47.238;9.006;2023-10-19T10:55:09;9.05;;;7.50;;
83121;SDS011;73002;47.238;9.006;2023-10-19T10:57:39;9.55;;;7.35;;
83121;SDS011;73002;47.238;9.006;2023-10-19T11:00:06;8.30;;;7.30;;
83121;SDS011;73002;47.238;9.006;2023-10-19T11:02:40;8.88;;;6.35;;
83121;SDS011;73002;47.238;9.006;2023-10-19T11:05:11;9.00;;;7.00;;
83121;SDS011;73002;47.238;9.006;2023-10-19T11:07:39;8.48;;;7.40;;
83121;SDS011;73002;47.238;9.006;2023-10-19T11:10:06;10.23;;;7.60;;
83121;SDS011;73002;47.238;9.006;2023-10-19T11:12:32;9.50;;;7.40;;
83121;SDS011;73002;47.238;9.006;2023-10-19T11:15:00;8.80;;;7.57;;
83121;SDS011;73002;47.238;9.006;2023-10-19T11:17:27;13.63;;;7.43;;
83121;SDS011;73002;47.238;9.006;2023-10-19T11:19:57;10.30;;;8.18;;
83121;SDS011;73002;47.238;9.006;2023-10-19T11:22:23;9.88;;;7.20;;
83121;SDS011;73002;47.238;9.006;2023-10-19T11:24:53;9.13;;;8.02;;
83121;SDS011;73002;47.238;9.006;2023-10-19T11:27:23;9.95;;;7.25;;
83121;SDS011;73002;47.238;9.006;2023-10-19T11:29:56;7.47;;;6.78;;
83121;SDS011;73002;47.238;9.006;2023-10-19T11:55:51;10.57;;;7.50;;
83121;SDS011;73002;47.238;9.006;2023-10-19T11:58:17;10.65;;;7.68;;
83121;SDS011;73002;47.238;9.006;2023-10-19T12:00:42;8.50;;;7.30;;
83121;SDS011;73002;47.238;9.006;2023-10-19T12:03:11;9.63;;;7.15;;
83121;SDS011;73002;47.238;9.006;2023-10-19T12:05:37;9.10;;;6.65;;
83121;SDS011;73002;47.238;9.006;2023-10-19T12:08:03;9.10;;;6.82;;
83121;SDS011;73002;47.238;9.006;2023-10-19T12:10:28;8.25;;;6.65;;
83121;SDS011;73002;47.238;9.006;2023-10-19T12:13:06;8.55;;;7.60;;
83121;SDS011;73002;47.238;9.006;2023-10-19T12:15:33;8.18;;;7.20;;
83121;SDS011;73002;47.238;9.006;2023-10-19T12:55:07;9.77;;;8.48;;
83121;SDS011;73002;47.238;9.006;2023-10-19T12:57:34;9.05;;;8.15;;
83121;SDS011;73002;47.238;9.006;2023-10-19T13:00:00;11.38;;;9.48;;
83121;SDS011;73002;47.238;9.006;2023-10-19T13:02:25;12.70;;;9.10;;
83121;SDS011;73002;47.238;9.006;2023-10-19T13:04:55;10.60;;;9.27;;
83121;SDS011;73002;47.238;9.006;2023-10-19T13:12:31;10.52;;;9.45;;
83121;SDS011;73002;47.238;9.006;2023-10-19T13:17:31;11.73;;;10.23;;
83121;SDS011;73002;47.238;9.006;2023-10-19T13:19:57;11.40;;;8.52;;
83121;SDS011;73002;47.238;9.006;2023-10-19T13:22:23;11.90;;;9.15;;
83121;SDS011;73002;47.238;9.006;2023-10-19T13:24:49;11.02;;;9.52;;
83121;SDS011;73002;47.238;9.006;2023-10-19T13:27:15;10.88;;;9.63;;
83121;SDS011;73002;47.238;9.006;2023-10-19T13:29:40;13.15;;;9.75;;
83121;SDS011;73002;47.238;9.006;2023-10-19T13:32:06;11.73;;;9.55;;
83121;SDS011;73002;47.238;9.006;2023-10-19T13:34:32;10.70;;;9.60;;
83121;SDS011;73002;47.238;9.006;2023-10-19T13:36:57;12.02;;;10.27;;
83121;SDS011;73002;47.238;9.006;2023-10-19T13:39:23;12.80;;;9.70;;
83121;SDS011;73002;47.238;9.006;2023-10-19T13:41:53;16.33;;;9.82;;
83121;SDS011;73002;47.238;9.006;2023-10-19T13:44:18;12.70;;;9.68;;
83121;SDS011;73002;47.238;9.006;2023-10-19T13:46:46;12.85;;;9.90;;
83121;SDS011;73002;47.238;9.006;2023-10-19T13:49:11;13.05;;;10.13;;
83121;SDS011;73002;47.238;9.006;2023-10-19T13:51:38;12.20;;;10.30;;
83121;SDS011;73002;47.238;9.006;2023-10-19T13:54:08;12.43;;;10.40;;
83121;SDS011;73002;47.238;9.006;2023-10-19T13:56:33;14.27;;;10.65;;
83121;SDS011;73002;47.238;9.006;2023-10-19T13:58:59;12.65;;;10.95;;
83121;SDS011;73002;47.238;9.006;2023-10-19T14:01:24;12.63;;;11.32;;
83121;SDS011;73002;47.238;9.006;2023-10-19T14:03:53;14.85;;;10.93;;
83121;SDS011;73002;47.238;9.006;2023-10-19T14:09:17;12.70;;;10.13;;
83121;SDS011;73002;47.238;9.006;2023-10-19T14:11:43;12.50;;;10.32;;
83121;SDS011;73002;47.238;9.006;2023-10-19T14:14:10;11.73;;;10.45;;
83121;SDS011;73002;47.238;9.006;2023-10-19T14:16:38;14.93;;;10.10;;
83121;SDS011;73002;47.238;9.006;2023-10-19T14:19:04;13.52;;;10.60;;
83121;SDS011;73002;47.238;9.006;2023-10-19T14:21:29;13.32;;;10.55;;
83121;SDS011;73002;47.238;9.006;2023-10-19T14:23:56;14.82;;;10.90;;
83121;SDS011;73002;47.238;9.006;2023-10-19T14:26:21;15.35;;;11.57;;
83121;SDS011;73002;47.238;9.006;2023-10-19T14:28:47;14.13;;;11.43;;
83121;SDS011;73002;47.238;9.006;2023-10-19T14:31:13;14.13;;;11.07;;
83121;SDS011;73002;47.238;9.006;2023-10-19T14:33:41;14.25;;;12.27;;
83121;SDS011;73002;47.238;9.006;2023-10-19T14:36:07;14.82;;;12.25;;
83121;SDS011;73002;47.238;9.006;2023-10-19T14:38:34;15.70;;;12.77;;
83121;SDS011;73002;47.238;9.006;2023-10-19T14:41:01;14.10;;;12.60;;
83121;SDS011;73002;47.238;9.006;2023-10-19T14:43:30;14.33;;;12.50;;
83121;SDS011;73002;47.238;9.006;2023-10-19T14:45:56;14.00;;;11.63;;
83121;SDS011;73002;47.238;9.006;2023-10-19T14:48:23;14.48;;;11.63;;
83121;SDS011;73002;47.238;9.006;2023-10-19T14:50:49;13.55;;;11.38;;
83121;SDS011;73002;47.238;9.006;2023-10-19T14:53:14;14.40;;;11.43;;
83121;SDS011;73002;47.238;9.006;2023-10-19T14:55:46;12.50;;;11.15;;
83121;SDS011;73002;47.238;9.006;2023-10-19T14:58:12;16.15;;;12.00;;
83121;SDS011;73002;47.238;9.006;2023-10-19T15:03:12;15.05;;;12.00;;
83121;SDS011;73002;47.238;9.006;2023-10-19T15:05:38;15.05;;;12.30;;
83121;SDS011;73002;47.238;9.006;2023-10-19T15:08:08;15.77;;;12.20;;
83121;SDS011;73002;47.238;9.006;2023-10-19T15:10:35;16.38;;;11.90;;
83121;SDS011;73002;47.238;9.006;2023-10-19T15:13:06;14.70;;;12.90;;
83121;SDS011;73002;47.238;9.006;2023-10-19T15:15:31;13.98;;;12.00;;
83121;SDS011;73002;47.238;9.006;2023-10-19T15:17:57;14.95;;;11.88;;
83121;SDS011;73002;47.238;9.006;2023-10-19T15:20:26;13.48;;;11.52;;
83121;SDS011;73002;47.238;9.006;2023-10-19T15:22:53;13.00;;;11.55;;
83121;SDS011;73002;47.238;9.006;2023-10-19T15:30:28;14.65;;;12.05;;
83121;SDS011;73002;47.238;9.006;2023-10-19T15:32:54;13.75;;;11.10;;
83121;SDS011;73002;47.238;9.006;2023-10-19T15:35:23;14.40;;;11.75;;
83121;SDS011;73002;47.238;9.006;2023-10-19T15:37:49;15.15;;;11.60;;
83121;SDS011;73002;47.238;9.006;2023-10-19T15:40:16;14.85;;;11.32;;
83121;SDS011;73002;47.238;9.006;2023-10-19T15:42:42;13.65;;;11.32;;
83121;SDS011;73002;47.238;9.006;2023-10-19T15:45:09;15.02;;;11.18;;
83121;SDS011;73002;47.238;9.006;2023-10-19T15:47:41;16.83;;;11.13;;
83121;SDS011;73002;47.238;9.006;2023-10-19T15:50:07;14.13;;;10.88;;
83121;SDS011;73002;47.238;9.006;2023-10-19T15:52:33;13.43;;;11.18;;
83121;SDS011;73002;47.238;9.006;2023-10-19T16:05:20;17.77;;;12.38;;
83121;SDS011;73002;47.238;9.006;2023-10-19T16:07:45;16.67;;;12.18;;
83121;SDS011;73002;47.238;9.006;2023-10-19T16:10:11;14.63;;;11.85;;
83121;SDS011;73002;47.238;9.006;2023-10-19T16:22:28;15.57;;;11.90;;
83121;SDS011;73002;47.238;9.006;2023-10-19T16:24:54;12.23;;;10.77;;
83121;SDS011;73002;47.238;9.006;2023-10-19T16:27:22;13.30;;;11.23;;
83121;SDS011;73002;47.238;9.006;2023-10-19T16:29:48;16.23;;;13.52;;
83121;SDS011;73002;47.238;9.006;2023-10-19T16:32:13;19.65;;;17.48;;
83121;SDS011;73002;47.238;9.006;2023-10-19T16:34:39;16.25;;;13.82;;
83121;SDS011;73002;47.238;9.006;2023-10-19T16:37:06;20.10;;;13.77;;
83121;SDS011;73002;47.238;9.006;2023-10-19T16:39:33;14.98;;;12.70;;
83121;SDS011;73002;47.238;9.006;2023-10-19T16:42:02;15.90;;;12.95;;
83121;SDS011;73002;47.238;9.006;2023-10-19T16:44:28;18.77;;;13.43;;
83121;SDS011;73002;47.238;9.006;2023-10-19T16:46:55;16.95;;;12.48;;
83121;SDS011;73002;47.238;9.006;2023-10-19T16:49:20;14.30;;;12.52;;
83121;SDS011;73002;47.238;9.006;2023-10-19T16:51:49;13.18;;;10.80;;
83121;SDS011;73002;47.238;9.006;2023-10-19T16:54:14;14.40;;;11.20;;
83121;SDS011;73002;47.238;9.006;2023-10-19T16:59:15;15.68;;;11.43;;
83121;SDS011;73002;47.238;9.006;2023-10-19T17:01:41;14.00;;;11.27;;
83121;SDS011;73002;47.238;9.006;2023-10-19T17:04:08;12.45;;;9.15;;
83121;SDS011;73002;47.238;9.006;2023-10-19T17:06:35;12.48;;;9.25;;
83121;SDS011;73002;47.238;9.006;2023-10-19T17:09:14;9.40;;;7.15;;
83121;SDS011;73002;47.238;9.006;2023-10-19T17:11:48;7.88;;;6.10;;
83121;SDS011;73002;47.238;9.006;2023-10-19T17:14:17;7.55;;;6.18;;
83121;SDS011;73002;47.238;9.006;2023-10-19T17:16:46;8.07;;;6.65;;
83121;SDS011;73002;47.238;9.006;2023-10-19T17:19:12;8.15;;;6.20;;
83121;SDS011;73002;47.238;9.006;2023-10-19T17:26:48;11.07;;;8.73;;
83121;SDS011;73002;47.238;9.006;2023-10-19T17:29:13;13.25;;;9.80;;
83121;SDS011;73002;47.238;9.006;2023-10-19T17:31:39;11.18;;;8.93;;
83121;SDS011;73002;47.238;9.006;2023-10-19T17:34:04;10.07;;;7.47;;
83121;SDS011;73002;47.238;9.006;2023-10-19T17:36:32;8.40;;;4.85;;
83121;SDS011;73002;47.238;9.006;2023-10-19T17:38:59;10.05;;;8.25;;
83121;SDS011;73002;47.238;9.006;2023-10-19T17:41:25;10.65;;;9.50;;
83121;SDS011;73002;47.238;9.006;2023-10-19T17:46:17;7.30;;;6.18;;
83121;SDS011;73002;47.238;9.006;2023-10-19T17:48:44;7.47;;;4.97;;
83121;SDS011;73002;47.238;9.006;2023-10-19T17:51:10;7.30;;;5.38;;
83121;SDS011;73002;47.238;9.006;2023-10-19T17:53:37;5.90;;;5.30;;
83121;SDS011;73002;47.238;9.006;2023-10-19T17:56:04;4.85;;;3.80;;
83121;SDS011;73002;47.238;9.006;2023-10-19T17:58:33;5.80;;;2.92;;
83121;SDS011;73002;47.238;9.006;2023-10-19T18:01:01;4.50;;;3.40;;
83121;SDS011;73002;47.238;9.006;2023-10-19T18:03:29;5.03;;;3.95;;
83121;SDS011;73002;47.238;9.006;2023-10-19T18:08:31;15.98;;;14.20;;
83121;SDS011;73002;47.238;9.006;2023-10-19T18:10:58;17.80;;;15.65;;
83121;SDS011;73002;47.238;9.006;2023-10-19T18:13:27;9.80;;;7.63;;
83121;SDS011;73002;47.238;9.006;2023-10-19T18:15:52;6.50;;;4.97;;
83121;SDS011;73002;47.238;9.006;2023-10-19T18:18:22;4.38;;;3.88;;
83121;SDS011;73002;47.238;9.006;2023-10-19T18:20:50;3.65;;;2.30;;
83121;SDS011;73002;47.238;9.006;2023-10-19T18:23:15;3.00;;;2.70;;
83121;SDS011;73002;47.238;9.006;2023-10-19T18:25:42;5.75;;;3.28;;
83121;SDS011;73002;47.238;9.006;2023-10-19T18:28:08;3.63;;;2.60;;
83121;SDS011;73002;47.238;9.006;2023-10-19T18:30:34;2.85;;;2.20;;
83121;SDS011;73002;47.238;9.006;2023-10-19T18:35:26;4.10;;;2.40;;
83121;SDS011;73002;47.238;9.006;2023-10-19T18:37:54;4.03;;;2.80;;
83121;SDS011;73002;47.238;9.006;2023-10-19T18:40:20;8.82;;;7.13;;
83121;SDS011;73002;47.238;9.006;2023-10-19T18:42:48;7.15;;;4.68;;
83121;SDS011;73002;47.238;9.006;2023-10-19T18:45:13;4.32;;;3.92;;
83121;SDS011;73002;47.238;9.006;2023-10-19T18:50:14;11.48;;;7.65;;
83121;SDS011;73002;47.238;9.006;2023-10-19T18:52:40;8.90;;;6.68;;
83121;SDS011;73002;47.238;9.006;2023-10-19T18:55:05;7.45;;;5.85;;
83121;SDS011;73002;47.238;9.006;2023-10-19T18:57:32;7.65;;;6.30;;
83121;SDS011;73002;47.238;9.006;2023-10-19T19:00:02;9.65;;;6.25;;
83121;SDS011;73002;47.238;9.006;2023-10-19T19:02:29;7.80;;;6.15;;
83121;SDS011;73002;47.238;9.006;2023-10-19T19:04:54;8.63;;;6.82;;
83121;SDS011;73002;47.238;9.006;2023-10-19T19:07:20;7.65;;;6.80;;
83121;SDS011;73002;47.238;9.006;2023-10-19T19:09:47;9.52;;;7.03;;
83121;SDS011;73002;47.238;9.006;2023-10-19T19:12:13;10.80;;;8.38;;
83121;SDS011;73002;47.238;9.006;2023-10-19T19:14:38;10.48;;;8.73;;
83121;SDS011;73002;47.238;9.006;2023-10-19T19:17:06;9.13;;;6.63;;
83121;SDS011;73002;47.238;9.006;2023-10-19T19:19:34;8.57;;;5.60;;
83121;SDS011;73002;47.238;9.006;2023-10-19T19:21:59;9.10;;;6.10;;
83121;SDS011;73002;47.238;9.006;2023-10-19T19:24:25;9.13;;;7.45;;
83121;SDS011;73002;47.238;9.006;2023-10-19T19:26:50;8.30;;;6.60;;
83121;SDS011;73002;47.238;9.006;2023-10-19T19:29:15;7.22;;;6.28;;
83121;SDS011;73002;47.238;9.006;2023-10-19T19:31:46;8.73;;;7.83;;
83121;SDS011;73002;47.238;9.006;2023-10-19T19:34:12;12.63;;;9.35;;
83121;SDS011;73002;47.238;9.006;2023-10-19T19:36:37;13.20;;;7.80;;
83121;SDS011;73002;47.238;9.006;2023-10-19T19:39:05;8.05;;;6.78;;
83121;SDS011;73002;47.238;9.006;2023-10-19T19:41:32;7.38;;;6.28;;
83121;SDS011;73002;47.238;9.006;2023-10-19T19:44:01;8.45;;;6.32;;
83121;SDS011;73002;47.238;9.006;2023-10-19T19:51:37;8.38;;;6.97;;
83121;SDS011;73002;47.238;9.006;2023-10-19T19:54:03;10.02;;;7.43;;
83121;SDS011;73002;47.238;9.006;2023-10-19T19:56:31;9.75;;;7.57;;
83121;SDS011;73002;47.238;9.006;2023-10-19T19:58:57;12.18;;;8.10;;
83121;SDS011;73002;47.238;9.006;2023-10-19T20:01:24;10.25;;;7.88;;
83121;SDS011;73002;47.238;9.006;2023-10-19T20:06:14;9.00;;;7.90;;
83121;SDS011;73002;47.238;9.006;2023-10-19T20:08:40;10.15;;;8.02;;
83121;SDS011;73002;47.238;9.006;2023-10-19T20:11:05;10.23;;;7.82;;
83121;SDS011;73002;47.238;9.006;2023-10-19T20:13:32;8.90;;;6.60;;
83121;SDS011;73002;47.238;9.006;2023-10-19T20:16:00;8.75;;;5.80;;
83121;SDS011;73002;47.238;9.006;2023-10-19T20:18:25;6.93;;;5.05;;
83121;SDS011;73002;47.238;9.006;2023-10-19T20:23:26;7.10;;;5.90;;
83121;SDS011;73002;47.238;9.006;2023-10-19T20:25:51;7.65;;;6.45;;
83121;SDS011;73002;47.238;9.006;2023-10-19T20:28:19;9.90;;;8.65;;
83121;SDS011;73002;47.238;9.006;2023-10-19T20:30:45;10.38;;;8.90;;
83121;SDS011;73002;47.238;9.006;2023-10-19T20:33:10;12.85;;;8.68;;
83121;SDS011;73002;47.238;9.006;2023-10-19T20:35:37;8.80;;;7.13;;
83121;SDS011;73002;47.238;9.006;2023-10-19T20:38:02;9.18;;;7.50;;
83121;SDS011;73002;47.238;9.006;2023-10-19T20:40:30;9.18;;;7.00;;
83121;SDS011;73002;47.238;9.006;2023-10-19T20:42:55;10.10;;;8.00;;
83121;SDS011;73002;47.238;9.006;2023-10-19T20:50:33;9.98;;;7.95;;
83121;SDS011;73002;47.238;9.006;2023-10-19T20:52:59;11.93;;;7.43;;
83121;SDS011;73002;47.238;9.006;2023-10-19T20:55:28;8.23;;;6.15;;
83121;SDS011;73002;47.238;9.006;2023-10-19T20:57:53;8.30;;;6.60;;
83121;SDS011;73002;47.238;9.006;2023-10-19T21:00:19;9.35;;;6.45;;
83121;SDS011;73002;47.238;9.006;2023-10-19T21:02:47;8.18;;;5.75;;
83121;SDS011;73002;47.238;9.006;2023-10-19T21:05:13;5.90;;;5.05;;
83121;SDS011;73002;47.238;9.006;2023-10-19T21:10:14;5.47;;;4.22;;
83121;SDS011;73002;47.238;9.006;2023-10-19T21:12:43;5.53;;;4.32;;
83121;SDS011;73002;47.238;9.006;2023-10-19T21:15:10;4.93;;;4.22;;
83121;SDS011;73002;47.238;9.006;2023-10-19T21:17:42;5.25;;;4.32;;
83121;SDS011;73002;47.238;9.006;2023-10-19T21:20:09;5.72;;;4.38;;
83121;SDS011;73002;47.238;9.006;2023-10-19T21:22:40;5.07;;;3.78;;
83121;SDS011;73002;47.238;9.006;2023-10-19T21:25:13;5.60;;;3.97;;
83121;SDS011;73002;47.238;9.006;2023-10-19T21:27:40;5.97;;;4.15;;
83121;SDS011;73002;47.238;9.006;2023-10-19T22:21:19;5.05;;;4.30;;
83121;SDS011;73002;47.238;9.006;2023-10-19T23:02:08;7.47;;;4.75;;
83121;SDS011;73002;47.238;9.006;2023-10-19T23:04:34;5.95;;;5.07;;
83121;SDS011;73002;47.238;9.006;2023-10-19T23:07:01;9.05;;;5.80;;
83121;SDS011;73002;47.238;9.006;2023-10-19T23:09:30;7.13;;;5.55;;
83121;SDS011;73002;47.238;9.006;2023-10-19T23:11:56;6.75;;;6.03;;
